createdAt,value
2023-01-05T00:04:49.606Z,10.4
2023-01-05T00:09:49.750Z,10.5
2023-01-05T00:14:49.679Z,10.6
2023-01-05T00:19:49.522Z,10.6
2023-01-05T00:24:49.826Z,10.7
2023-01-05T00:29:49.772Z,10.5
2023-01-05T00:34:50.156Z,10.5
2023-01-05T00:39:49.395Z,10.5
2023-01-05T00:44:49.470Z,10.6
2023-01-05T00:49:49.811Z,10.6
2023-01-05T00:54:49.663Z,10.4
2023-01-05T00:59:49.802Z,10.3
2023-01-05T01:04:49.580Z,10.3
2023-01-05T01:09:49.759Z,10.3
2023-01-05T01:14:50.238Z,10.2
2023-01-05T01:19:49.914Z,10.3
2023-01-05T01:24:49.719Z,10.4
2023-01-05T01:29:49.710Z,10.5
2023-01-05T01:34:49.569Z,10.5
2023-01-05T01:39:49.608Z,10.4
2023-01-05T01:44:56.670Z,10.5
2023-01-05T01:49:49.780Z,10.5
2023-01-05T01:54:49.405Z,10.2
2023-01-05T01:59:49.404Z,10.2
2023-01-05T02:04:49.561Z,10.4
2023-01-05T02:09:49.564Z,10.3
2023-01-05T02:14:49.547Z,10.3
2023-01-05T02:19:59.714Z,10.4
2023-01-05T08:54:55.755Z,10.3
2023-01-05T08:59:51.791Z,10.1
2023-01-05T09:04:50.970Z,10.1
2023-01-05T09:09:50.903Z,10.2
2023-01-05T09:14:51.003Z,10.1
2023-01-05T09:19:50.937Z,10.1
2023-01-05T09:24:50.872Z,10.1
2023-01-05T09:29:51.117Z,10.1
2023-01-05T09:34:50.835Z,10.4
2023-01-05T09:39:51.168Z,10.3
2023-01-05T09:44:55.533Z,10.4
2023-01-05T09:49:51.201Z,10.6
2023-01-05T09:54:50.941Z,10.4
2023-01-05T09:59:52.653Z,10.3
2023-01-05T10:04:52.030Z,10.6
2023-01-05T10:09:50.747Z,10.7
2023-01-05T10:14:53.177Z,10.6
2023-01-05T10:19:50.993Z,10.8
2023-01-05T10:24:51.072Z,10.6
2023-01-05T10:29:53.475Z,10.8
2023-01-05T10:34:51.085Z,10.6
2023-01-05T10:39:55.715Z,10.8
2023-01-05T10:44:51.056Z,10.9
2023-01-05T10:49:50.949Z,10.7
2023-01-05T10:54:51.036Z,10.4
2023-01-05T10:59:53.601Z,10.8
2023-01-05T11:04:52.322Z,11
2023-01-05T11:09:50.773Z,10.5
2023-01-05T11:14:56.329Z,11
2023-01-05T11:19:52.890Z,11
2023-01-05T11:24:51.134Z,10.8
2023-01-05T11:30:16.498Z,11.2
2023-01-05T11:34:50.928Z,11.1
2023-01-05T11:39:53.060Z,11.1
2023-01-05T11:44:52.163Z,11.2
2023-01-05T11:49:58.572Z,11.5
2023-01-05T11:54:50.997Z,11.2
2023-01-05T11:59:50.904Z,11.6
2023-01-05T12:05:00.689Z,11.7
2023-01-05T12:09:54.814Z,11.7
2023-01-05T12:14:50.780Z,12.1
2023-01-05T12:19:50.998Z,12
2023-01-05T12:24:57.172Z,13
2023-01-05T12:35:02.868Z,11.9
2023-01-05T12:40:00.490Z,11.9
2023-01-05T12:44:50.587Z,11.7
2023-01-05T12:49:54.327Z,11.4
2023-01-05T12:54:54.192Z,11.4
2023-01-05T12:59:55.267Z,11.8
2023-01-05T13:04:56.259Z,11.5
2023-01-05T13:09:50.674Z,11.3
2023-01-05T13:15:00.106Z,11.2
2023-01-05T13:19:53.316Z,11.2
2023-01-05T13:24:56.093Z,11.3
2023-01-05T13:29:52.342Z,11.3
2023-01-05T13:34:50.536Z,11.2
2023-01-05T13:39:59.487Z,11.3
2023-01-05T13:44:50.509Z,11.3
2023-01-05T13:50:00.346Z,11.1
2023-01-05T13:55:01.504Z,10.9
2023-01-05T14:00:00.585Z,10.9
2023-01-05T14:04:50.937Z,10.7
2023-01-05T14:09:53.003Z,10.6
2023-01-05T14:15:00.454Z,10.4
2023-01-05T14:19:50.565Z,10.3
2023-01-05T14:24:50.693Z,10.4
2023-01-05T14:29:59.720Z,10.4
2023-01-05T14:34:52.981Z,10.3
2023-01-05T14:39:53.194Z,10.3
2023-01-05T14:44:50.459Z,10.3
2023-01-05T14:49:52.275Z,10.2
2023-01-05T14:55:26.754Z,10.1
2023-01-05T14:59:50.558Z,10.1
2023-01-05T15:04:50.624Z,10
2023-01-05T15:10:28.585Z,10.1
2023-01-05T15:14:50.669Z,10.1
2023-01-05T15:19:50.689Z,9.9
2023-01-05T15:24:56.571Z,10
2023-01-05T15:29:58.704Z,9.9
2023-01-05T15:34:50.392Z,9.9
2023-01-05T15:39:51.518Z,9.7
2023-01-05T15:44:51.192Z,9.5
2023-01-05T15:49:50.777Z,9.2
2023-01-05T15:54:59.912Z,9.3
2023-01-05T15:59:50.502Z,9.3
2023-01-05T16:05:08.391Z,9.4
2023-01-05T16:09:50.809Z,9.4
2023-01-05T16:14:52.154Z,9.4
2023-01-05T16:19:50.559Z,9.3
2023-01-05T16:24:54.663Z,9.3
2023-01-05T16:29:50.717Z,9.3
2023-01-05T16:34:50.716Z,9.4
2023-01-05T16:39:50.780Z,9.6
2023-01-05T16:44:51.460Z,9.3
2023-01-05T16:49:58.058Z,9.4
2023-01-05T16:55:16.989Z,9.4
2023-01-05T16:59:50.534Z,9.6
2023-01-05T17:04:50.388Z,9.5
2023-01-05T17:09:50.800Z,9.4
2023-01-05T17:14:50.312Z,9.4
2023-01-05T17:19:50.656Z,9.6
2023-01-05T17:24:50.395Z,9.4
2023-01-05T17:29:51.269Z,9.4
2023-01-05T17:34:50.709Z,9.6
2023-01-05T17:39:50.561Z,9.6
2023-01-05T17:44:50.553Z,9.6
2023-01-05T17:49:50.599Z,9.7
2023-01-05T17:54:50.376Z,9.7
2023-01-05T17:59:50.589Z,9.8
2023-01-05T18:04:51.413Z,9.8
2023-01-05T18:09:50.620Z,9.8
2023-01-05T18:14:50.404Z,9.9
2023-01-05T18:19:50.650Z,9.8
2023-01-05T18:24:50.371Z,10
2023-01-05T18:29:50.289Z,10.1
2023-01-05T18:34:50.604Z,9.9
2023-01-05T18:39:50.645Z,10.1
2023-01-05T18:44:50.394Z,10.2
2023-01-05T18:49:50.294Z,10.1
2023-01-05T18:54:50.894Z,10.1
2023-01-05T18:59:51.868Z,10.3
2023-01-05T19:04:50.549Z,10.3
2023-01-05T19:09:51.493Z,10.2
2023-01-05T19:14:50.594Z,10.2
2023-01-05T19:19:50.391Z,10.2
2023-01-05T19:24:50.571Z,10.1
2023-01-05T19:29:50.759Z,10.3
2023-01-05T19:34:50.331Z,10.4
2023-01-05T19:39:50.457Z,10.5
2023-01-05T19:44:50.344Z,10.3
2023-01-05T19:49:50.489Z,10.3
2023-01-05T19:54:50.259Z,10.3
2023-01-05T19:59:51.434Z,10.2
2023-01-05T20:04:50.777Z,10.2
2023-01-05T20:09:50.397Z,10.1
2023-01-05T20:14:50.393Z,10
2023-01-05T20:19:50.379Z,10.1
2023-01-05T20:24:50.409Z,10.1
2023-01-05T20:29:50.654Z,10.1
2023-01-05T20:34:51.170Z,10.1
2023-01-05T20:39:50.349Z,10.2
2023-01-05T20:44:50.683Z,10.2
2023-01-05T20:49:50.432Z,10.4
2023-01-05T20:54:50.464Z,10.4
2023-01-05T20:59:50.199Z,10.4
2023-01-05T21:04:50.381Z,10.3
2023-01-05T21:09:50.252Z,10.3
2023-01-05T21:14:50.427Z,10.4
2023-01-05T21:19:50.319Z,10.3
2023-01-05T21:24:50.259Z,10.2
2023-01-05T21:29:50.548Z,10.4
2023-01-05T21:34:50.350Z,10.3
2023-01-05T21:39:50.412Z,10.4
2023-01-05T21:44:50.453Z,10.3
2023-01-05T21:49:50.172Z,10.3
2023-01-05T21:54:50.071Z,10.2
2023-01-05T21:59:50.110Z,10.2
2023-01-05T22:04:50.150Z,10.4
2023-01-05T22:09:50.584Z,10.3
2023-01-05T22:15:00.406Z,10.2
2023-01-05T22:20:01.054Z,10.4
2023-01-05T22:25:00.618Z,10.3
2023-01-05T22:30:00.527Z,10.3
2023-01-05T22:35:00.549Z,10.3
2023-01-05T22:40:00.477Z,10.1
2023-01-05T22:45:00.605Z,10.2
2023-01-05T22:50:00.601Z,10.3
2023-01-05T22:55:00.376Z,10
2023-01-05T23:00:00.866Z,10
2023-01-05T23:05:02.453Z,9.9
2023-01-05T23:10:00.727Z,9.9
2023-01-05T23:15:00.462Z,10
2023-01-05T23:20:00.337Z,10
2023-01-05T23:25:00.736Z,10
2023-01-05T23:30:00.528Z,10.1
2023-01-05T23:35:00.494Z,10
2023-01-05T23:40:00.549Z,10.1
2023-01-05T23:45:00.314Z,10
2023-01-05T23:50:00.694Z,10.1
2023-01-05T23:55:00.535Z,10.1
